Lovell, ME (04051)

5:48 PM EDT on August 27, 2015 (GMT -0400)
Creeper Hill, NW Cove Kezar Lake | | Change Station
CLOSE
Current Station
Personal Weather Station
Location: Stow, ME
Elevation: 385 ft
Nearby Weather Stations

Elev 385 ft 44.17 °N, 70.94 °W | Updated 10 seconds ago

Overcast
Overcast
70.1 °F
Feels Like 73 °F
N
0.0
Wind Variable Wind from NNE
Gusts 0.0 mph

Today
High -- | Low -- °F
--% Chance of Precip.
Yesterday
High -- | Low -- °F
Precip. -- in
6:00 AM 7:29 PM
Waxing Gibbous, 95% visible
Pressure 29.98 in
Visibility 10.0 miles
Clouds Few 5000 ft
Mostly Cloudy 10000 ft
Heat Index 73 °F
Dew Point 62 °F
Humidity 75%
Rainfall 0.00 in
Snow Depth Not available.
UV 1 out of 12
Pollen 8.60 out of 12
Air Quality Not available.
Flu Activity Not available.
METAR KIZG 272054Z AUTO 34004KT 10SM FEW050 BKN100 23/14 A2997 RMK AO2 SLP150 T02280144 53004
Pressure 29.98 in
Visibility 10.0 miles
Clouds Few 5000 ft
Mostly Cloudy 10000 ft
Heat Index 73 °F
Dew Point 62 °F
Humidity 75%
Rainfall 0.00 in
Snow Depth Not available.
UV 1 out of 12
Pollen 8.60 out of 12
Air Quality Not available.
Flu Activity Not available.
METAR KIZG 272054Z AUTO 34004KT 10SM FEW050 BKN100 23/14 A2997 RMK AO2 SLP150 T02280144 53004

10-Day Weather Forecast

×

Almanac

Astronomy

Aug. 27, 2015 Rise Set
Actual Time
Civil Twilight
Nautical Twilight
Astronomical Twilight
Moon
Length of Visible Light
Length of Day
Tomorrow will be .
, % of the Moon is Illuminated

Today's Extremes

State Highs State Lows

Community

WunderPhotos

Upload Photos

1,850,238 photos uploaded!

WunderBlogs® & News

Nearby

Air Quality

  Air Quality AQ Index Pollutant
Not available.

Snow Depth

Station Depth Elevation

Earthquake Activity

City Distance Mag. Time & Date
Minimum magnitude displayed is 2.5.

Coastal Water Temperatures

Place Temperature

Stations

Nearby Weather Stations

Station Location Temp. Windchill Dew Point Humidity Wind Precip. Elev Updated Type